createdAt,value
2019-03-24T00:02:27.310Z,80.60
2019-03-24T00:04:57.918Z,80.80
2019-03-24T00:07:28.483Z,80.00
2019-03-24T00:09:59.062Z,80.40
2019-03-24T00:12:29.638Z,81.00
2019-03-24T00:15:00.340Z,82.20
2019-03-24T00:17:30.838Z,82.60
2019-03-24T00:20:01.446Z,82.30
2019-03-24T00:22:32.007Z,82.40
2019-03-24T00:25:02.578Z,81.90
2019-03-24T00:27:33.272Z,80.70
2019-03-24T00:30:03.856Z,79.40
2019-03-24T00:32:34.472Z,80.30
2019-03-24T00:35:05.059Z,80.60
2019-03-24T00:37:35.588Z,81.20
2019-03-24T00:40:06.676Z,81.30
2019-03-24T00:42:37.358Z,81.60
2019-03-24T00:45:07.948Z,82.30
2019-03-24T00:47:38.584Z,82.60
2019-03-24T00:50:09.218Z,81.20
2019-03-24T00:52:39.858Z,79.80
2019-03-24T00:55:10.401Z,79.70
2019-03-24T00:57:41.006Z,79.40
2019-03-24T01:00:11.684Z,80.60
2019-03-24T01:02:42.258Z,82.00
2019-03-24T01:05:12.826Z,82.30
2019-03-24T01:07:43.463Z,82.00
2019-03-24T01:10:14.119Z,82.30
2019-03-24T01:12:44.744Z,81.70
2019-03-24T01:15:20.606Z,81.00
2019-03-24T01:17:51.141Z,79.70
2019-03-24T01:20:21.842Z,78.40
2019-03-24T01:22:52.450Z,79.80
2019-03-24T01:25:22.989Z,81.50
2019-03-24T01:27:53.590Z,82.30
2019-03-24T01:30:24.698Z,83.10
2019-03-24T01:32:55.829Z,83.90
2019-03-24T01:35:26.388Z,83.80
2019-03-24T01:37:56.972Z,82.50
2019-03-24T01:40:27.570Z,82.40
2019-03-24T01:42:58.157Z,82.10
2019-03-24T01:45:28.760Z,82.60
2019-03-24T01:47:59.331Z,83.30
2019-03-24T01:50:30.450Z,83.80
2019-03-24T01:53:01.108Z,84.00
2019-03-24T01:55:31.736Z,83.90
2019-03-24T01:58:02.345Z,83.40
2019-03-24T02:00:33.033Z,82.90
2019-03-24T02:03:19.413Z,82.60
2019-03-24T02:09:17.172Z,80.70
2019-03-24T02:11:47.955Z,81.10
2019-03-24T02:15:23.330Z,81.40
2019-03-24T02:17:12.295Z,81.30
2019-03-24T02:19:47.121Z,81.10
2019-03-24T02:22:20.810Z,82.00
2019-03-24T02:25:14.000Z,82.50
2019-03-24T02:27:45.615Z,82.30
2019-03-24T02:30:19.009Z,82.90
2019-03-24T02:32:51.625Z,84.00
2019-03-24T02:35:23.224Z,84.50
2019-03-24T02:38:21.400Z,84.40
2019-03-24T02:44:43.083Z,84.10
2019-03-24T02:47:44.203Z,84.70
2019-03-24T02:50:17.221Z,85.50
2019-03-24T02:56:19.516Z,85.70
2019-03-24T02:58:51.469Z,84.70
2019-03-24T03:02:03.533Z,84.20
2019-03-24T03:04:50.263Z,83.40
2019-03-24T03:07:21.911Z,82.10
2019-03-24T03:09:55.078Z,82.70
2019-03-24T03:12:27.920Z,83.80
2019-03-24T03:15:00.845Z,84.10
2019-03-24T03:17:31.499Z,84.30
2019-03-24T03:20:03.815Z,84.20
2019-03-24T03:22:34.386Z,84.80
2019-03-24T03:25:05.355Z,86.00
2019-03-24T03:27:35.965Z,87.00
2019-03-24T03:30:08.559Z,87.00
2019-03-24T03:32:39.313Z,85.90
2019-03-24T03:35:11.669Z,85.10
2019-03-24T03:37:42.277Z,84.20
2019-03-24T03:40:13.770Z,84.00
2019-03-24T03:42:44.711Z,84.70
2019-03-24T03:45:22.228Z,84.90
2019-03-24T03:47:54.714Z,86.00
2019-03-24T03:50:25.322Z,85.70
2019-03-24T03:52:56.863Z,84.80
2019-03-24T03:55:28.923Z,85.50
2019-03-24T03:57:59.623Z,86.00
2019-03-24T04:00:35.101Z,86.00
2019-03-24T04:03:05.817Z,86.20
2019-03-24T04:05:37.836Z,85.30
2019-03-24T04:08:08.931Z,85.20
2019-03-24T04:10:40.658Z,84.90
2019-03-24T04:13:11.378Z,84.60
2019-03-24T04:15:42.980Z,85.80
2019-03-24T04:18:14.507Z,86.40
2019-03-24T04:20:46.740Z,87.00
2019-03-24T04:23:18.243Z,87.10
2019-03-24T04:25:49.195Z,86.60
2019-03-24T04:28:19.901Z,86.40
2019-03-24T04:30:53.811Z,86.50
2019-03-24T04:33:24.400Z,86.80
2019-03-24T04:35:58.021Z,86.90
2019-03-24T04:38:30.001Z,86.30
2019-03-24T04:41:01.707Z,84.90
2019-03-24T04:43:32.894Z,84.30
2019-03-24T04:46:03.509Z,83.90
2019-03-24T04:48:34.672Z,83.10
2019-03-24T04:51:05.390Z,83.00
2019-03-24T04:53:36.023Z,83.80
2019-03-24T04:56:06.575Z,83.60
2019-03-24T04:58:37.295Z,82.70
2019-03-24T05:01:07.879Z,83.60
2019-03-24T05:03:39.103Z,84.80
2019-03-24T05:06:09.658Z,85.50
2019-03-24T05:08:40.497Z,85.30
2019-03-24T05:11:11.129Z,85.30
2019-03-24T05:13:42.808Z,85.20
2019-03-24T05:16:14.550Z,84.80
2019-03-24T05:18:45.177Z,83.70
2019-03-24T05:21:16.470Z,82.20
2019-03-24T05:23:48.094Z,82.40
2019-03-24T05:26:21.824Z,82.70
2019-03-24T05:28:52.410Z,82.70
2019-03-24T05:31:23.049Z,82.90
2019-03-24T05:33:53.761Z,83.50
2019-03-24T05:36:24.887Z,85.40
2019-03-24T05:38:56.062Z,86.30
2019-03-24T05:41:26.601Z,86.70
2019-03-24T05:43:57.143Z,87.30
2019-03-24T05:46:27.751Z,86.90
2019-03-24T05:48:58.302Z,87.10
2019-03-24T05:51:28.868Z,87.30
2019-03-24T05:54:02.247Z,87.10
2019-03-24T05:56:32.865Z,86.40
2019-03-24T05:59:03.897Z,86.00
2019-03-24T06:01:34.488Z,85.80
2019-03-24T06:04:05.052Z,85.60
2019-03-24T06:06:36.139Z,85.80
2019-03-24T06:09:07.731Z,86.50
2019-03-24T06:11:38.353Z,86.90
2019-03-24T06:14:08.959Z,87.10
2019-03-24T06:16:39.546Z,86.40
2019-03-24T06:19:10.112Z,86.40
2019-03-24T06:21:40.742Z,85.70
2019-03-24T06:24:11.294Z,84.80
2019-03-24T06:26:42.016Z,85.40
2019-03-24T06:29:12.588Z,85.60
2019-03-24T06:31:43.202Z,85.20
2019-03-24T06:34:13.840Z,86.00
2019-03-24T06:36:44.426Z,86.70
2019-03-24T06:39:15.577Z,87.20
2019-03-24T06:41:46.150Z,87.00
2019-03-24T06:44:16.829Z,87.20
2019-03-24T06:46:47.441Z,86.80
2019-03-24T06:49:18.518Z,86.80
2019-03-24T06:51:49.113Z,85.90
2019-03-24T06:54:19.751Z,86.10
2019-03-24T06:56:51.492Z,84.80
2019-03-24T06:59:22.120Z,85.90
2019-03-24T07:01:52.673Z,86.40
2019-03-24T07:04:23.396Z,87.10
2019-03-24T07:06:55.186Z,89.40
2019-03-24T07:09:25.785Z,89.70
2019-03-24T07:11:56.852Z,89.90
2019-03-24T07:14:27.498Z,89.40
2019-03-24T07:16:58.092Z,86.80
2019-03-24T07:19:28.645Z,85.50
2019-03-24T07:21:59.256Z,84.50
2019-03-24T07:24:29.841Z,83.40
2019-03-24T07:27:03.837Z,83.10
2019-03-24T07:29:38.735Z,83.10
2019-03-24T07:35:51.857Z,83.20
2019-03-24T07:38:30.026Z,82.00
2019-03-24T07:41:00.678Z,81.70
2019-03-24T07:43:31.282Z,81.20
2019-03-24T07:46:01.815Z,81.80
2019-03-24T07:48:32.420Z,81.40
2019-03-24T07:51:03.025Z,80.80
2019-03-24T07:53:33.614Z,81.90
2019-03-24T07:56:04.211Z,81.20
2019-03-24T07:58:34.806Z,80.90
2019-03-24T08:01:05.417Z,79.80
2019-03-24T08:03:37.099Z,79.40
2019-03-24T08:06:07.650Z,79.50
2019-03-24T08:08:44.231Z,79.50
2019-03-24T08:11:10.501Z,79.20
2019-03-24T08:13:52.916Z,77.70
2019-03-24T08:16:13.586Z,75.70
2019-03-24T08:18:44.515Z,75.00
2019-03-24T08:21:15.187Z,75.70
2019-03-24T08:23:45.691Z,75.50
2019-03-24T08:26:16.428Z,75.10
2019-03-24T08:28:47.041Z,74.70
2019-03-24T08:31:17.861Z,75.10
2019-03-24T08:33:48.703Z,74.70
2019-03-24T08:36:19.405Z,75.60
2019-03-24T08:38:50.198Z,74.80
2019-03-24T08:41:20.711Z,73.90
2019-03-24T08:43:51.430Z,73.40
2019-03-24T08:46:22.172Z,73.20
2019-03-24T08:48:53.070Z,73.70
2019-03-24T08:51:23.676Z,73.70
2019-03-24T08:53:54.532Z,74.40
2019-03-24T08:56:25.402Z,72.30
2019-03-24T08:58:56.204Z,73.70
2019-03-24T09:01:26.949Z,72.70
2019-03-24T09:03:57.813Z,74.60
2019-03-24T09:06:28.550Z,73.60
2019-03-24T09:08:59.296Z,74.80
2019-03-24T09:11:31.544Z,73.40
2019-03-24T09:14:02.337Z,71.20
2019-03-24T09:16:33.216Z,72.80
2019-03-24T09:19:03.947Z,71.70
2019-03-24T09:21:34.817Z,70.30
2019-03-24T09:24:05.349Z,70.60
2019-03-24T09:26:35.885Z,70.30
2019-03-24T09:29:06.425Z,70.80
2019-03-24T09:31:36.990Z,69.00
2019-03-24T09:34:07.707Z,67.70
2019-03-24T09:36:42.146Z,67.50
2019-03-24T09:39:12.606Z,67.90
2019-03-24T09:41:44.912Z,66.80
2019-03-24T09:44:15.664Z,66.30
2019-03-24T09:47:30.275Z,67.50
2019-03-24T09:50:01.143Z,66.20
2019-03-24T09:52:31.632Z,67.50
2019-03-24T09:55:02.233Z,65.10
2019-03-24T09:57:32.773Z,65.40
2019-03-24T10:00:03.471Z,64.80
2019-03-24T10:02:34.138Z,64.80
2019-03-24T10:05:05.820Z,64.20
2019-03-24T10:07:36.311Z,66.30
2019-03-24T10:10:06.907Z,65.40
2019-03-24T10:12:37.490Z,64.50
2019-03-24T10:15:08.122Z,65.10
2019-03-24T10:17:38.575Z,63.20
2019-03-24T10:20:09.272Z,63.10
2019-03-24T10:22:39.889Z,65.00
2019-03-24T10:25:10.738Z,65.50
2019-03-24T10:27:44.029Z,63.50
2019-03-24T10:30:14.987Z,64.30
2019-03-24T10:32:48.487Z,63.60
2019-03-24T10:35:19.751Z,60.80
2019-03-24T10:37:50.670Z,61.80
2019-03-24T10:40:28.485Z,59.40
2019-03-24T10:42:53.906Z,63.20
2019-03-24T10:45:24.605Z,61.40
2019-03-24T10:47:55.429Z,60.70
2019-03-24T10:50:39.289Z,60.60
2019-03-24T10:53:09.841Z,58.10
2019-03-24T10:55:40.716Z,59.10
2019-03-24T10:58:11.525Z,60.40
2019-03-24T11:00:43.419Z,57.40
2019-03-24T11:03:14.240Z,58.30
2019-03-24T11:05:44.783Z,58.20
2019-03-24T11:08:15.497Z,56.70
2019-03-24T11:10:46.237Z,57.50
2019-03-24T11:13:16.736Z,58.00
2019-03-24T11:15:47.299Z,56.00
2019-03-24T11:18:17.849Z,57.60
2019-03-24T11:20:54.307Z,57.40
2019-03-24T11:23:24.859Z,55.90
2019-03-24T11:25:55.431Z,55.40
2019-03-24T11:28:25.906Z,55.00
2019-03-24T11:30:56.388Z,56.20
2019-03-24T11:33:26.893Z,54.40
2019-03-24T11:35:57.398Z,55.90
2019-03-24T11:38:27.972Z,55.40
2019-03-24T11:40:58.689Z,53.50
2019-03-24T11:43:29.335Z,53.60
2019-03-24T11:46:00.236Z,52.90
2019-03-24T11:48:30.995Z,53.40
2019-03-24T11:51:01.685Z,55.80
2019-03-24T11:53:32.226Z,53.30
2019-03-24T11:56:02.716Z,53.50
2019-03-24T11:58:33.292Z,54.40
2019-03-24T12:01:04.022Z,54.00
2019-03-24T12:03:34.810Z,53.10
2019-03-24T12:06:14.034Z,53.00
2019-03-24T12:08:38.826Z,53.20
2019-03-24T12:11:09.456Z,56.70
2019-03-24T12:13:40.003Z,54.70
2019-03-24T12:16:10.542Z,54.10
2019-03-24T12:18:41.067Z,53.20
2019-03-24T12:21:11.882Z,54.90
2019-03-24T12:23:42.414Z,54.70
2019-03-24T12:26:12.962Z,54.00
2019-03-24T12:28:43.443Z,55.80
2019-03-24T12:31:14.261Z,50.20
2019-03-24T12:33:44.795Z,50.30
2019-03-24T12:36:15.502Z,51.40
2019-03-24T12:38:46.140Z,51.60
2019-03-24T12:41:17.221Z,50.60
2019-03-24T12:43:48.095Z,50.70
2019-03-24T12:46:18.658Z,48.30
2019-03-24T12:48:49.151Z,49.30
2019-03-24T12:51:20.283Z,46.90
2019-03-24T12:53:51.067Z,45.20
2019-03-24T12:56:21.609Z,46.40
2019-03-24T12:58:52.142Z,44.40
2019-03-24T13:01:22.783Z,46.90
2019-03-24T13:03:53.314Z,47.00
2019-03-24T13:06:24.056Z,46.40
2019-03-24T13:08:55.010Z,46.40
2019-03-24T13:11:25.753Z,43.10
2019-03-24T13:13:56.322Z,41.60
2019-03-24T13:16:27.156Z,45.30
2019-03-24T13:18:57.990Z,42.20
2019-03-24T13:21:28.879Z,43.30
2019-03-24T13:23:59.707Z,43.30
2019-03-24T13:26:30.434Z,44.30
2019-03-24T13:29:01.204Z,42.80
2019-03-24T13:31:31.968Z,41.50
2019-03-24T13:34:02.861Z,44.10
2019-03-24T13:36:33.845Z,43.80
2019-03-24T13:39:05.098Z,43.10
2019-03-24T13:41:35.959Z,42.70
2019-03-24T13:44:06.871Z,41.80
2019-03-24T13:46:37.687Z,43.30
2019-03-24T13:49:08.594Z,43.20
2019-03-24T13:51:39.388Z,45.80
2019-03-24T13:54:10.236Z,43.80
2019-03-24T13:56:41.020Z,44.10
2019-03-24T13:59:11.814Z,41.70
2019-03-24T14:01:42.657Z,42.00
2019-03-24T14:04:13.437Z,43.90
2019-03-24T14:06:44.156Z,42.80
2019-03-24T14:09:14.890Z,44.80
2019-03-24T14:11:45.717Z,42.00
2019-03-24T14:14:16.259Z,43.10
2019-03-24T14:16:47.063Z,42.30
2019-03-24T14:19:17.854Z,43.20
2019-03-24T14:21:48.596Z,42.20
2019-03-24T14:24:19.556Z,42.80
2019-03-24T14:26:50.281Z,43.90
2019-03-24T14:29:21.010Z,42.90
2019-03-24T14:31:51.873Z,42.50
2019-03-24T14:34:22.621Z,43.00
2019-03-24T14:36:53.501Z,42.40
2019-03-24T14:39:24.386Z,43.10
2019-03-24T14:41:55.084Z,42.50
2019-03-24T14:44:25.973Z,43.20
2019-03-24T14:46:56.686Z,43.80
2019-03-24T14:49:27.450Z,45.10
2019-03-24T14:51:58.285Z,44.50
2019-03-24T14:54:29.502Z,44.30
2019-03-24T14:57:00.379Z,46.80
2019-03-24T14:59:31.131Z,44.50
2019-03-24T15:02:01.891Z,47.40
2019-03-24T15:04:32.644Z,45.10
2019-03-24T15:07:03.444Z,47.60
2019-03-24T15:09:34.274Z,45.10
2019-03-24T15:12:05.330Z,43.80
2019-03-24T15:14:35.835Z,45.00
2019-03-24T15:17:06.593Z,45.30
2019-03-24T15:19:37.333Z,45.20
2019-03-24T15:22:07.935Z,46.20
2019-03-24T15:24:38.602Z,45.50
2019-03-24T15:27:09.161Z,46.70
2019-03-24T15:29:39.762Z,45.10
2019-03-24T15:32:10.373Z,43.70
2019-03-24T15:34:40.892Z,44.40
2019-03-24T15:37:11.419Z,47.50
2019-03-24T15:39:42.003Z,44.00
2019-03-24T15:42:12.617Z,44.50
2019-03-24T15:44:43.175Z,44.40
2019-03-24T15:47:14.035Z,44.10
2019-03-24T15:49:44.688Z,44.40
2019-03-24T15:52:15.459Z,45.40
2019-03-24T15:54:46.044Z,45.70
2019-03-24T15:57:16.848Z,45.10
2019-03-24T15:59:47.681Z,45.00
2019-03-24T16:02:18.370Z,46.00
2019-03-24T16:04:49.263Z,44.10
2019-03-24T16:07:20.245Z,45.10
2019-03-24T16:09:50.820Z,47.10
2019-03-24T16:12:21.507Z,45.70
2019-03-24T16:14:52.018Z,45.10
2019-03-24T16:17:22.466Z,45.90
2019-03-24T16:19:52.994Z,47.70
2019-03-24T16:22:23.681Z,46.60
2019-03-24T16:24:54.428Z,46.30
2019-03-24T16:27:25.161Z,46.80
2019-03-24T16:29:55.696Z,47.30
2019-03-24T16:32:29.301Z,47.50
2019-03-24T16:34:59.902Z,48.20
2019-03-24T16:37:30.508Z,47.90
2019-03-24T16:40:01.096Z,48.00
2019-03-24T16:42:31.696Z,47.80
2019-03-24T16:45:02.362Z,48.20
2019-03-24T16:47:32.950Z,48.20
2019-03-24T16:50:03.523Z,48.10
2019-03-24T16:52:34.193Z,48.20
2019-03-24T16:55:04.832Z,49.70
2019-03-24T16:57:35.352Z,50.10
2019-03-24T17:00:07.082Z,50.30
2019-03-24T17:02:38.133Z,51.00
2019-03-24T17:05:12.015Z,51.60
2019-03-24T17:07:42.575Z,52.20
2019-03-24T17:10:13.173Z,52.80
2019-03-24T17:12:43.707Z,53.40
2019-03-24T17:15:14.140Z,54.10
2019-03-24T17:17:44.703Z,55.00
2019-03-24T17:20:15.641Z,55.10
2019-03-24T17:22:46.205Z,55.30
2019-03-24T17:25:16.831Z,56.10
2019-03-24T17:27:47.316Z,56.70
2019-03-24T17:30:17.960Z,57.20
2019-03-24T17:32:48.585Z,57.20
2019-03-24T17:35:19.145Z,57.20
2019-03-24T17:37:51.271Z,57.00
2019-03-24T17:40:21.886Z,57.70
2019-03-24T17:42:52.809Z,57.60
2019-03-24T17:45:23.489Z,58.10
2019-03-24T17:47:54.295Z,58.70
2019-03-24T17:50:25.069Z,59.60
2019-03-24T17:52:55.792Z,59.70
2019-03-24T17:55:27.819Z,60.10
2019-03-24T17:57:59.320Z,60.80
2019-03-24T18:00:37.972Z,60.40
2019-03-24T18:03:08.698Z,61.50
2019-03-24T18:05:39.221Z,61.40
2019-03-24T18:08:09.885Z,62.90
2019-03-24T18:10:40.819Z,63.10
2019-03-24T18:13:11.543Z,64.30
2019-03-24T18:15:42.335Z,64.50
2019-03-24T18:18:12.847Z,65.00
2019-03-24T18:20:43.682Z,65.60
2019-03-24T18:23:14.244Z,66.00
2019-03-24T18:25:44.798Z,66.00
2019-03-24T18:28:15.526Z,66.30
2019-03-24T18:30:46.235Z,66.80
2019-03-24T18:33:16.805Z,67.20
2019-03-24T18:35:47.399Z,67.80
2019-03-24T18:38:18.313Z,68.30
2019-03-24T18:40:49.254Z,68.70
2019-03-24T18:43:19.973Z,69.20
2019-03-24T18:45:50.668Z,69.80
2019-03-24T18:48:21.487Z,70.30
2019-03-24T18:50:52.129Z,70.70
2019-03-24T18:53:23.072Z,71.30
2019-03-24T18:55:53.653Z,71.10
2019-03-24T18:58:24.184Z,70.70
2019-03-24T19:00:54.782Z,70.90
2019-03-24T19:03:25.195Z,71.20
2019-03-24T19:05:55.715Z,71.50
2019-03-24T19:08:26.246Z,71.60
2019-03-24T19:10:56.787Z,72.00
2019-03-24T19:13:27.349Z,72.20
2019-03-24T19:15:58.093Z,72.70
2019-03-24T19:18:28.786Z,73.10
2019-03-24T19:20:59.592Z,73.10
2019-03-24T19:23:30.390Z,71.60
2019-03-24T19:26:00.986Z,71.90
2019-03-24T19:28:31.500Z,71.70
2019-03-24T19:31:02.076Z,72.00
2019-03-24T19:33:32.632Z,72.40
2019-03-24T19:36:03.496Z,72.70
2019-03-24T19:38:34.094Z,73.10
2019-03-24T19:41:04.823Z,73.20
2019-03-24T19:43:35.523Z,73.00
2019-03-24T19:46:06.080Z,73.20
2019-03-24T19:48:36.868Z,73.70
2019-03-24T19:51:07.651Z,74.40
2019-03-24T19:53:38.387Z,74.90
2019-03-24T19:56:09.165Z,74.80
2019-03-24T19:58:39.639Z,74.80
2019-03-24T20:01:10.614Z,75.60
2019-03-24T20:03:43.428Z,74.80
2019-03-24T20:06:13.460Z,75.40
2019-03-24T20:08:44.306Z,74.70
2019-03-24T20:11:14.967Z,75.20
2019-03-24T20:13:45.726Z,75.30
2019-03-24T20:16:16.508Z,75.20
2019-03-24T20:18:47.018Z,75.60
2019-03-24T20:21:17.741Z,76.20
2019-03-24T20:23:48.638Z,75.90
2019-03-24T20:26:19.168Z,75.40
2019-03-24T20:28:49.651Z,75.30
2019-03-24T20:31:20.244Z,75.80
2019-03-24T20:33:50.762Z,75.70
2019-03-24T20:36:21.395Z,74.80
2019-03-24T20:38:51.946Z,75.10
2019-03-24T20:41:22.862Z,75.30
2019-03-24T20:43:53.628Z,75.50
2019-03-24T20:46:24.362Z,75.50
2019-03-24T20:48:54.843Z,76.30
2019-03-24T20:51:25.519Z,77.10
2019-03-24T20:53:56.295Z,76.60
2019-03-24T20:56:27.062Z,77.50
2019-03-24T20:58:57.543Z,77.20
2019-03-24T21:01:28.411Z,77.60
2019-03-24T21:03:59.229Z,77.70
2019-03-24T21:06:29.903Z,77.30
2019-03-24T21:09:00.692Z,75.50
2019-03-24T21:11:31.183Z,73.80
2019-03-24T21:14:02.014Z,73.10
2019-03-24T21:16:32.746Z,72.20
2019-03-24T21:19:03.260Z,71.70
2019-03-24T21:21:36.156Z,71.30
2019-03-24T21:24:06.511Z,70.70
2019-03-24T21:26:37.341Z,69.80
2019-03-24T21:29:08.052Z,69.70
2019-03-24T21:31:38.976Z,69.60
2019-03-24T21:34:09.503Z,69.90
2019-03-24T21:36:40.387Z,71.00
2019-03-24T21:39:10.927Z,70.20
2019-03-24T21:41:41.421Z,70.50
2019-03-24T21:44:12.100Z,70.30
2019-03-24T21:46:43.040Z,71.40
2019-03-24T21:49:13.552Z,71.30
2019-03-24T21:51:44.055Z,71.90
2019-03-24T21:54:14.824Z,71.50
2019-03-24T21:56:45.549Z,71.80
2019-03-24T21:59:16.243Z,72.90
2019-03-24T22:01:47.086Z,72.20
2019-03-24T22:04:17.584Z,72.30
2019-03-24T22:06:48.365Z,72.10
2019-03-24T22:09:19.069Z,71.80
2019-03-24T22:11:49.808Z,72.20
2019-03-24T22:14:20.540Z,72.30
2019-03-24T22:16:51.040Z,72.50
2019-03-24T22:19:21.629Z,72.00
2019-03-24T22:21:52.165Z,72.00
2019-03-24T22:24:22.670Z,72.40
2019-03-24T22:26:53.562Z,72.90
2019-03-24T22:29:24.300Z,72.70
2019-03-24T22:31:55.096Z,72.70
2019-03-24T22:34:25.583Z,73.20
2019-03-24T22:36:56.343Z,73.40
2019-03-24T22:39:26.845Z,73.60
2019-03-24T22:41:57.753Z,73.70
2019-03-24T22:44:28.669Z,73.60
2019-03-24T22:46:59.212Z,73.50
2019-03-24T22:49:29.703Z,73.90
2019-03-24T22:52:07.200Z,73.20
2019-03-24T22:54:32.843Z,73.90
2019-03-24T22:57:03.563Z,73.60
2019-03-24T22:59:34.347Z,73.80
2019-03-24T23:02:05.167Z,74.00
2019-03-24T23:04:35.914Z,73.60
2019-03-24T23:07:06.785Z,73.70
2019-03-24T23:09:37.272Z,74.50
2019-03-24T23:12:08.008Z,73.50
2019-03-24T23:14:38.508Z,73.60
2019-03-24T23:17:09.204Z,74.00
2019-03-24T23:19:39.956Z,73.90
2019-03-24T23:22:10.496Z,73.90
2019-03-24T23:24:41.207Z,74.50
2019-03-24T23:27:11.931Z,74.40
2019-03-24T23:29:42.435Z,74.30
2019-03-24T23:32:13.098Z,74.60
2019-03-24T23:34:43.836Z,74.50
2019-03-24T23:37:14.617Z,74.50
2019-03-24T23:39:45.269Z,74.60
2019-03-24T23:42:15.911Z,74.50
2019-03-24T23:44:46.640Z,74.50
2019-03-24T23:47:17.502Z,74.90
2019-03-24T23:49:48.259Z,73.80
2019-03-24T23:52:19.019Z,74.40
2019-03-24T23:54:49.617Z,74.60
2019-03-24T23:57:20.455Z,74.70
2019-03-24T23:59:50.972Z,74.40
